createdAt,value
2024-03-15T00:02:25.267Z,0.30
2024-03-15T00:04:53.218Z,0.63
2024-03-15T00:07:20.146Z,0.60
2024-03-15T00:09:46.667Z,1.08
2024-03-15T00:12:13.245Z,1.00
2024-03-15T00:14:39.839Z,0.55
2024-03-15T00:17:06.231Z,0.55
2024-03-15T00:19:32.642Z,0.45
2024-03-15T00:21:59.333Z,0.20
2024-03-15T00:24:26.673Z,0.20
2024-03-15T00:26:53.154Z,0.20
2024-03-15T00:29:19.628Z,0.40
2024-03-15T00:31:46.664Z,0.65
2024-03-15T00:34:13.119Z,0.50
2024-03-15T00:36:39.736Z,0.47
2024-03-15T00:39:09.694Z,0.35
2024-03-15T00:41:36.639Z,0.30
2024-03-15T00:44:03.083Z,0.20
2024-03-15T00:46:29.462Z,0.80
2024-03-15T00:48:55.950Z,0.70
2024-03-15T00:51:22.441Z,1.02
2024-03-15T00:53:48.954Z,1.73
2024-03-15T00:56:15.399Z,2.10
2024-03-15T00:58:41.771Z,1.98
2024-03-15T01:01:08.353Z,1.52
2024-03-15T01:03:35.084Z,1.90
2024-03-15T01:06:02.132Z,2.65
2024-03-15T01:08:29.334Z,3.65
2024-03-15T01:10:55.804Z,4.20
2024-03-15T01:13:22.284Z,2.17
2024-03-15T01:15:48.986Z,1.75
2024-03-15T01:18:18.741Z,2.03
2024-03-15T01:20:46.023Z,3.58
2024-03-15T01:23:12.694Z,3.50
2024-03-15T01:25:40.799Z,2.13
2024-03-15T01:28:07.656Z,2.90
2024-03-15T01:30:35.685Z,2.38
2024-03-15T01:33:02.158Z,2.80
2024-03-15T01:35:37.580Z,1.60
2024-03-15T01:38:04.178Z,1.02
2024-03-15T01:40:31.851Z,1.27
2024-03-15T01:42:58.727Z,6.47
2024-03-15T01:45:25.256Z,5.65
2024-03-15T01:47:51.827Z,4.18
2024-03-15T01:50:18.273Z,2.67
2024-03-15T01:52:45.769Z,2.10
2024-03-15T01:55:12.380Z,1.65
2024-03-15T01:57:39.724Z,1.33
2024-03-15T02:00:11.083Z,1.35
2024-03-15T02:02:38.267Z,0.57
2024-03-15T02:05:04.749Z,0.52
2024-03-15T02:07:31.188Z,1.58
2024-03-15T02:09:58.078Z,0.90
2024-03-15T02:12:25.128Z,0.75
2024-03-15T02:14:51.967Z,2.25
2024-03-15T02:17:18.841Z,3.72
2024-03-15T02:19:48.479Z,2.42
2024-03-15T02:22:14.891Z,1.80
2024-03-15T02:24:41.932Z,1.83
2024-03-15T02:27:09.560Z,1.20
2024-03-15T02:29:36.046Z,0.98
2024-03-15T02:32:03.734Z,0.50
2024-03-15T02:34:31.166Z,0.60
2024-03-15T02:36:57.589Z,1.30
2024-03-15T02:39:25.688Z,1.35
2024-03-15T02:41:52.995Z,2.00
2024-03-15T02:44:19.909Z,4.22
2024-03-15T02:46:47.456Z,4.18
2024-03-15T02:49:13.845Z,2.35
2024-03-15T02:51:40.375Z,4.00
2024-03-15T02:54:10.497Z,3.25
2024-03-15T02:56:38.062Z,2.28
2024-03-15T02:59:04.495Z,1.73
2024-03-15T03:01:30.884Z,1.40
2024-03-15T03:03:57.410Z,1.20
2024-03-15T03:06:23.879Z,1.55
2024-03-15T03:08:50.817Z,1.60
2024-03-15T03:11:18.835Z,0.90
2024-03-15T03:13:45.327Z,0.65
2024-03-15T03:16:18.034Z,0.85
2024-03-15T03:18:44.447Z,1.00
2024-03-15T03:21:10.916Z,1.80
2024-03-15T03:23:38.327Z,2.17
2024-03-15T03:26:04.950Z,4.22
2024-03-15T03:28:31.528Z,2.42
2024-03-15T03:30:57.973Z,5.05
2024-03-15T03:33:24.671Z,4.60
2024-03-15T03:35:51.328Z,3.63
2024-03-15T03:38:17.732Z,2.67
2024-03-15T03:40:44.096Z,2.88
2024-03-15T03:43:10.500Z,4.47
2024-03-15T03:45:39.933Z,3.50
2024-03-15T03:48:08.768Z,4.18
2024-03-15T03:50:35.429Z,4.07
2024-03-15T03:53:01.916Z,3.58
2024-03-15T03:55:28.890Z,3.13
2024-03-15T03:57:56.732Z,3.13
2024-03-15T04:00:23.280Z,2.65
2024-03-15T04:02:51.207Z,2.58
2024-03-15T04:05:19.439Z,3.10
2024-03-15T04:07:49.684Z,3.80
2024-03-15T04:10:16.184Z,4.10
2024-03-15T04:12:47.306Z,4.10
2024-03-15T04:15:25.249Z,2.47
2024-03-15T04:17:57.251Z,3.58
2024-03-15T04:20:23.815Z,3.38
2024-03-15T04:22:52.017Z,3.85
2024-03-15T04:25:18.644Z,8.40
2024-03-15T04:27:45.275Z,12.98
2024-03-15T04:30:15.062Z,10.18
2024-03-15T04:32:42.437Z,8.60
2024-03-15T04:35:08.930Z,6.35
2024-03-15T04:37:38.986Z,6.35
2024-03-15T04:40:08.005Z,5.72
2024-03-15T04:42:36.103Z,4.57
2024-03-15T04:45:08.066Z,3.17
2024-03-15T04:50:01.558Z,4.53
2024-03-15T04:52:28.072Z,3.00
2024-03-15T04:54:54.482Z,4.45
2024-03-15T04:57:23.250Z,4.28
2024-03-15T04:59:52.689Z,2.72
2024-03-15T05:02:20.340Z,3.03
2024-03-15T05:04:47.298Z,3.53
2024-03-15T05:07:13.772Z,3.40
2024-03-15T05:09:40.378Z,2.97
2024-03-15T05:12:07.029Z,4.70
2024-03-15T05:14:33.440Z,6.78
2024-03-15T05:16:59.843Z,7.70
2024-03-15T05:19:30.910Z,6.15
2024-03-15T05:22:03.339Z,6.22
2024-03-15T05:24:29.784Z,8.35
2024-03-15T05:26:56.192Z,7.78
2024-03-15T05:29:22.678Z,5.65
2024-03-15T05:31:49.100Z,5.20
2024-03-15T05:34:15.914Z,6.25
2024-03-15T05:36:42.641Z,7.22
2024-03-15T05:39:12.089Z,4.45
2024-03-15T05:41:41.662Z,5.25
2024-03-15T05:44:11.268Z,4.90
2024-03-15T05:46:37.935Z,4.78
2024-03-15T05:49:04.584Z,4.75
2024-03-15T05:51:32.193Z,7.47
2024-03-15T05:53:58.617Z,8.02
2024-03-15T05:56:25.083Z,5.25
2024-03-15T05:58:52.235Z,6.70
2024-03-15T06:01:18.906Z,4.95
2024-03-15T06:03:45.432Z,5.40
2024-03-15T06:06:11.991Z,4.00
2024-03-15T06:08:38.859Z,6.13
2024-03-15T06:11:05.296Z,6.00
2024-03-15T06:13:32.150Z,4.45
2024-03-15T06:15:58.784Z,3.97
2024-03-15T06:18:25.426Z,3.65
2024-03-15T06:20:54.539Z,3.13
2024-03-15T06:23:21.368Z,4.43
2024-03-15T06:25:48.680Z,4.43
2024-03-15T06:28:15.527Z,4.15
2024-03-15T06:30:48.040Z,5.25
2024-03-15T06:35:44.513Z,4.38
2024-03-15T06:38:18.379Z,3.53
2024-03-15T06:40:57.552Z,5.43
2024-03-15T06:43:43.012Z,4.68
2024-03-15T06:46:42.907Z,6.55
2024-03-15T06:49:17.634Z,4.38
2024-03-15T06:52:02.831Z,5.03
2024-03-15T06:54:29.274Z,5.88
2024-03-15T06:56:57.147Z,4.18
2024-03-15T06:59:24.713Z,5.82
2024-03-15T07:01:53.884Z,5.03
2024-03-15T07:04:20.937Z,5.53
2024-03-15T07:06:47.457Z,5.50
2024-03-15T07:09:16.457Z,6.00
2024-03-15T07:11:48.434Z,5.05
2024-03-15T07:16:41.367Z,6.40
2024-03-15T07:19:08.158Z,6.35
2024-03-15T07:21:34.867Z,5.88
2024-03-15T07:24:01.932Z,4.78
2024-03-15T07:26:28.543Z,4.95
2024-03-15T07:28:56.911Z,6.30
2024-03-15T07:31:24.095Z,4.72
2024-03-15T07:33:50.526Z,4.50
2024-03-15T07:36:19.436Z,4.07
2024-03-15T07:38:47.198Z,4.05
2024-03-15T07:41:13.651Z,4.35
2024-03-15T07:43:40.186Z,3.72
2024-03-15T07:46:08.806Z,6.13
2024-03-15T07:48:35.461Z,4.65
2024-03-15T07:51:02.329Z,5.78
2024-03-15T07:53:28.882Z,3.88
2024-03-15T07:55:55.654Z,4.50
2024-03-15T07:58:22.650Z,4.55
2024-03-15T08:00:49.147Z,2.92
2024-03-15T08:03:15.669Z,9.82
2024-03-15T08:05:42.107Z,2.63
2024-03-15T08:08:08.628Z,5.93
2024-03-15T08:10:35.169Z,3.58
2024-03-15T08:13:02.200Z,5.40
2024-03-15T08:15:33.758Z,4.25
2024-03-15T08:18:01.303Z,6.47
2024-03-15T08:20:28.023Z,6.05
2024-03-15T08:22:56.986Z,6.35
2024-03-15T08:25:24.328Z,4.72
2024-03-15T08:27:51.625Z,5.10
2024-03-15T08:30:18.896Z,4.25
2024-03-15T08:32:45.571Z,4.53
2024-03-15T08:35:15.577Z,5.78
2024-03-15T08:37:44.566Z,5.20
2024-03-15T08:40:14.285Z,4.47
2024-03-15T08:42:41.897Z,3.80
2024-03-15T08:45:10.508Z,4.63
2024-03-15T08:47:50.896Z,4.03
2024-03-15T08:50:33.977Z,5.43
2024-03-15T08:53:03.940Z,4.00
2024-03-15T08:55:30.627Z,5.32
2024-03-15T08:57:57.382Z,3.22
2024-03-15T09:00:24.839Z,4.57
2024-03-15T09:02:51.358Z,5.32
2024-03-15T09:05:17.981Z,3.92
2024-03-15T09:07:46.978Z,6.35
2024-03-15T09:10:16.560Z,4.10
2024-03-15T09:12:46.468Z,4.22
2024-03-15T09:15:13.805Z,3.78
2024-03-15T09:17:40.614Z,4.82
2024-03-15T09:20:20.314Z,4.72
2024-03-15T09:22:50.496Z,3.47
2024-03-15T09:25:20.261Z,2.90
2024-03-15T09:27:53.948Z,2.83
2024-03-15T09:30:27.654Z,6.25
2024-03-15T09:32:54.853Z,3.70
2024-03-15T09:35:22.138Z,3.83
2024-03-15T09:37:52.377Z,3.17
2024-03-15T09:40:22.586Z,5.57
2024-03-15T09:42:50.346Z,3.33
2024-03-15T09:45:20.388Z,3.83
2024-03-15T09:47:51.062Z,3.35
2024-03-15T09:50:19.105Z,3.17
2024-03-15T09:52:45.850Z,3.00
2024-03-15T09:55:15.093Z,3.50
2024-03-15T09:57:43.635Z,4.18
2024-03-15T10:00:31.457Z,3.40
2024-03-15T10:02:58.009Z,4.53
2024-03-15T10:05:24.479Z,3.15
2024-03-15T10:07:51.189Z,4.03
2024-03-15T10:10:18.432Z,4.72
2024-03-15T10:12:46.278Z,6.30
2024-03-15T10:15:13.984Z,6.95
2024-03-15T10:17:41.548Z,4.90
2024-03-15T10:20:12.446Z,4.63
2024-03-15T10:22:41.970Z,3.72
2024-03-15T10:25:20.847Z,5.65
2024-03-15T10:27:50.182Z,3.58
2024-03-15T10:30:18.219Z,4.75
2024-03-15T10:32:48.439Z,4.22
2024-03-15T10:35:16.855Z,4.07
2024-03-15T10:37:44.016Z,2.20
2024-03-15T10:40:15.054Z,2.55
2024-03-15T10:42:47.785Z,4.00
2024-03-15T10:45:15.569Z,2.97
2024-03-15T10:47:42.222Z,3.55
2024-03-15T10:50:13.385Z,3.10
2024-03-15T10:52:42.008Z,2.43
2024-03-15T10:55:17.638Z,3.05
2024-03-15T10:57:44.590Z,3.60
2024-03-15T11:00:19.206Z,2.60
2024-03-15T11:02:46.567Z,3.10
2024-03-15T11:05:18.135Z,2.33
2024-03-15T11:07:44.680Z,4.95
2024-03-15T11:10:14.589Z,4.55
2024-03-15T11:12:41.261Z,2.33
2024-03-15T11:15:12.816Z,2.10
2024-03-15T11:17:39.471Z,2.22
2024-03-15T11:20:06.998Z,2.53
2024-03-15T11:22:33.499Z,1.70
2024-03-15T11:25:00.120Z,1.70
2024-03-15T11:27:26.608Z,1.88
2024-03-15T11:29:57.399Z,1.85
2024-03-15T11:32:24.685Z,1.42
2024-03-15T11:34:51.282Z,1.20
2024-03-15T11:37:22.048Z,3.03
2024-03-15T11:40:00.054Z,1.55
2024-03-15T11:42:27.376Z,1.30
2024-03-15T11:44:55.074Z,1.15
2024-03-15T11:47:21.646Z,1.83
2024-03-15T11:49:53.794Z,1.00
2024-03-15T11:52:20.275Z,1.20
2024-03-15T11:54:52.055Z,2.08
2024-03-15T11:57:18.678Z,1.40
2024-03-15T11:59:45.163Z,1.50
2024-03-15T12:02:12.485Z,1.23
2024-03-15T12:04:39.083Z,1.15
2024-03-15T12:07:08.741Z,0.98
2024-03-15T12:09:40.420Z,1.63
2024-03-15T12:12:08.291Z,2.85
2024-03-15T12:14:34.692Z,1.30
2024-03-15T12:17:01.125Z,1.40
2024-03-15T12:19:28.328Z,1.48
2024-03-15T12:21:55.141Z,2.03
2024-03-15T12:24:21.623Z,2.85
2024-03-15T12:26:49.347Z,1.63
2024-03-15T12:29:15.855Z,1.67
2024-03-15T12:31:43.180Z,1.70
2024-03-15T12:34:09.822Z,2.00
2024-03-15T12:36:36.557Z,2.00
2024-03-15T12:39:03.846Z,3.10
2024-03-15T12:41:30.235Z,2.38
2024-03-15T12:43:56.684Z,2.92
2024-03-15T12:46:24.597Z,2.33
2024-03-15T12:48:53.564Z,1.50
2024-03-15T12:51:21.304Z,2.65
2024-03-15T12:53:47.718Z,2.22
2024-03-15T12:56:14.185Z,1.67
2024-03-15T12:58:40.962Z,1.40
2024-03-15T13:01:09.026Z,1.85
2024-03-15T13:03:35.562Z,2.42
2024-03-15T13:06:02.051Z,2.08
2024-03-15T13:08:28.469Z,1.20
2024-03-15T13:10:55.095Z,2.78
2024-03-15T13:13:21.913Z,1.55
2024-03-15T13:15:48.536Z,1.70
2024-03-15T13:18:16.244Z,1.73
2024-03-15T13:20:42.784Z,1.50
2024-03-15T13:23:09.199Z,1.48
2024-03-15T13:25:38.209Z,1.75
2024-03-15T13:28:06.624Z,2.22
2024-03-15T13:30:34.149Z,2.40
2024-03-15T13:33:02.573Z,2.35
2024-03-15T13:35:29.754Z,2.03
2024-03-15T13:37:56.258Z,1.50
2024-03-15T13:40:23.594Z,3.33
2024-03-15T13:42:51.951Z,1.90
2024-03-15T13:45:19.805Z,1.55
2024-03-15T13:48:23.827Z,2.03
2024-03-15T13:50:50.237Z,2.67
2024-03-15T13:53:16.666Z,1.48
2024-03-15T13:55:43.065Z,1.80
2024-03-15T13:58:09.626Z,2.53
2024-03-15T14:00:39.428Z,1.50
2024-03-15T14:03:06.126Z,1.70
2024-03-15T14:05:37.322Z,3.63
2024-03-15T14:08:09.292Z,3.17
2024-03-15T14:10:39.525Z,1.47
2024-03-15T14:13:09.836Z,2.92
2024-03-15T14:15:40.677Z,3.70
2024-03-15T14:18:08.948Z,1.58
2024-03-15T14:20:36.416Z,1.23
2024-03-15T14:23:02.992Z,2.80
2024-03-15T14:25:33.128Z,1.25
2024-03-15T14:28:01.826Z,1.10
2024-03-15T14:30:29.386Z,1.88
2024-03-15T14:32:56.265Z,2.25
2024-03-15T14:35:22.839Z,2.22
2024-03-15T14:37:49.288Z,1.63
2024-03-15T14:40:28.155Z,1.65
2024-03-15T14:42:55.604Z,1.48
2024-03-15T14:45:23.249Z,1.77
2024-03-15T14:47:53.009Z,1.73
2024-03-15T14:50:19.757Z,1.52
2024-03-15T14:52:47.205Z,1.17
2024-03-15T14:55:13.749Z,1.27
2024-03-15T14:57:41.141Z,2.05
2024-03-15T15:00:14.089Z,2.25
2024-03-15T15:02:40.977Z,1.95
2024-03-15T15:05:08.497Z,1.33
2024-03-15T15:07:35.169Z,2.50
2024-03-15T15:10:01.800Z,2.10
2024-03-15T15:12:28.653Z,2.85
2024-03-15T15:14:55.138Z,4.15
2024-03-15T15:17:21.600Z,1.95
2024-03-15T15:19:48.051Z,1.80
2024-03-15T15:22:17.421Z,2.42
2024-03-15T15:24:49.037Z,2.03
2024-03-15T15:27:15.820Z,1.85
2024-03-15T15:29:42.252Z,5.45
2024-03-15T15:32:08.835Z,2.03
2024-03-15T15:34:35.251Z,2.35
2024-03-15T15:37:03.372Z,1.58
2024-03-15T15:39:30.167Z,5.55
2024-03-15T15:41:56.626Z,3.90
2024-03-15T15:44:22.996Z,3.67
2024-03-15T15:46:49.458Z,1.63
2024-03-15T15:49:16.130Z,1.95
2024-03-15T15:51:44.262Z,2.40
2024-03-15T15:54:13.399Z,2.63
2024-03-15T15:56:39.834Z,1.65
2024-03-15T15:59:06.952Z,1.65
2024-03-15T16:01:38.223Z,1.95
2024-03-15T16:04:04.992Z,1.23
2024-03-15T16:06:31.507Z,2.72
2024-03-15T16:08:58.226Z,4.38
2024-03-15T16:11:25.675Z,3.15
2024-03-15T16:13:52.210Z,1.85
2024-03-15T16:16:18.632Z,5.05
2024-03-15T16:18:45.466Z,2.80
2024-03-15T16:21:12.125Z,2.97
2024-03-15T16:23:39.256Z,2.40
2024-03-15T16:26:05.633Z,2.78
2024-03-15T16:28:32.052Z,1.20
2024-03-15T16:31:00.569Z,3.97
2024-03-15T16:33:27.307Z,3.58
2024-03-15T16:35:53.749Z,4.15
2024-03-15T16:38:21.982Z,2.75
2024-03-15T16:40:49.483Z,3.55
2024-03-15T16:43:16.216Z,2.50
2024-03-15T16:45:43.793Z,1.65
2024-03-15T16:48:10.816Z,2.88
2024-03-15T16:50:37.375Z,1.02
2024-03-15T16:53:04.997Z,2.63
2024-03-15T16:58:01.082Z,1.90
2024-03-15T17:00:28.360Z,3.42
2024-03-15T17:02:54.903Z,3.53
2024-03-15T17:05:21.307Z,2.40
2024-03-15T17:07:49.942Z,2.70
2024-03-15T17:10:16.562Z,4.40
2024-03-15T17:12:43.706Z,1.92
2024-03-15T17:15:10.862Z,5.57
2024-03-15T17:17:38.108Z,2.25
2024-03-15T17:20:05.558Z,4.57
2024-03-15T17:22:31.993Z,2.10
2024-03-15T17:24:58.440Z,2.03
2024-03-15T17:27:25.562Z,2.90
2024-03-15T17:29:55.162Z,4.75
2024-03-15T17:32:24.430Z,2.17
2024-03-15T17:34:50.882Z,1.90
2024-03-15T17:37:17.615Z,2.22
2024-03-15T17:39:46.015Z,3.45
2024-03-15T17:42:12.535Z,3.30
2024-03-15T17:44:39.057Z,3.00
2024-03-15T17:47:05.566Z,1.98
2024-03-15T17:49:33.329Z,3.05
2024-03-15T17:51:59.831Z,1.77
2024-03-15T17:54:27.734Z,2.17
2024-03-15T17:56:55.097Z,3.33
2024-03-15T17:59:21.511Z,3.85
2024-03-15T18:01:48.194Z,3.78
2024-03-15T18:04:14.685Z,3.65
2024-03-15T18:06:41.338Z,3.40
2024-03-15T18:09:09.376Z,2.72
2024-03-15T18:11:35.890Z,3.38
2024-03-15T18:14:03.775Z,2.63
2024-03-15T18:16:30.297Z,1.50
2024-03-15T18:18:56.703Z,2.47
2024-03-15T18:21:24.001Z,1.98
2024-03-15T18:23:50.921Z,4.03
2024-03-15T18:26:17.877Z,4.38
2024-03-15T18:28:44.356Z,2.33
2024-03-15T18:31:13.820Z,3.03
2024-03-15T18:33:40.365Z,1.40
2024-03-15T18:36:06.943Z,2.50
2024-03-15T18:38:33.582Z,1.40
2024-03-15T18:41:00.742Z,0.50
2024-03-15T18:43:27.135Z,0.90
2024-03-15T18:45:53.657Z,1.67
2024-03-15T18:48:20.163Z,0.30
2024-03-15T18:50:46.655Z,0.20
2024-03-15T18:53:13.050Z,0.13
2024-03-15T18:55:39.532Z,0.20
2024-03-15T18:58:06.431Z,0.20
2024-03-15T19:00:34.444Z,0.10
2024-03-15T19:03:03.490Z,0.57
2024-03-15T19:05:30.773Z,0.20
2024-03-15T19:07:57.194Z,0.90
2024-03-15T19:10:24.953Z,0.20
2024-03-15T19:12:51.591Z,0.20
2024-03-15T19:15:18.338Z,0.10
2024-03-15T19:17:45.061Z,0.17
2024-03-15T19:20:11.539Z,0.20
2024-03-15T19:22:37.977Z,0.30
2024-03-15T19:25:06.519Z,0.60
2024-03-15T19:27:33.625Z,1.20
2024-03-15T19:30:00.165Z,0.55
2024-03-15T19:32:31.324Z,0.38
2024-03-15T19:34:59.304Z,0.50
2024-03-15T19:37:26.062Z,0.90
2024-03-15T19:39:54.463Z,1.20
2024-03-15T19:42:20.994Z,0.20
2024-03-15T19:44:47.490Z,0.10
2024-03-15T19:47:14.155Z,0.20
2024-03-15T19:49:41.226Z,0.80
2024-03-15T19:52:07.939Z,0.30
2024-03-15T19:54:34.516Z,0.10
2024-03-15T19:57:00.986Z,0.20
2024-03-15T19:59:27.503Z,0.13
2024-03-15T20:01:54.413Z,0.20
2024-03-15T20:04:21.383Z,0.10
2024-03-15T20:06:47.931Z,0.20
2024-03-15T20:09:14.560Z,0.40
2024-03-15T20:11:42.112Z,0.77
2024-03-15T20:14:08.683Z,2.50
2024-03-15T20:16:35.234Z,2.00
2024-03-15T20:19:04.673Z,1.90
2024-03-15T20:21:31.795Z,6.82
2024-03-15T20:24:00.393Z,4.85
2024-03-15T20:26:30.182Z,5.43
2024-03-15T20:28:57.051Z,3.47
2024-03-15T20:31:23.437Z,2.67
2024-03-15T20:33:50.231Z,5.47
2024-03-15T20:36:16.705Z,1.75
2024-03-15T20:38:43.197Z,1.25
2024-03-15T20:41:09.934Z,0.80
2024-03-15T20:43:36.333Z,1.08
2024-03-15T20:46:04.552Z,1.35
2024-03-15T20:48:31.377Z,1.88
2024-03-15T20:50:59.544Z,1.63
2024-03-15T20:53:26.063Z,2.83
2024-03-15T20:55:52.552Z,1.42
2024-03-15T20:58:19.318Z,2.30
2024-03-15T21:00:45.856Z,2.65
2024-03-15T21:03:14.084Z,1.63
2024-03-15T21:05:43.731Z,2.70
2024-03-15T21:08:10.157Z,3.45
2024-03-15T21:10:37.023Z,2.65
2024-03-15T21:13:04.669Z,3.22
2024-03-15T21:15:32.361Z,2.35
2024-03-15T21:17:58.973Z,2.42
2024-03-15T21:20:27.284Z,3.67
2024-03-15T21:22:53.959Z,2.97
2024-03-15T21:25:20.426Z,3.05
2024-03-15T21:27:47.022Z,4.47
2024-03-15T21:30:13.482Z,7.18
2024-03-15T21:32:40.001Z,5.35
2024-03-15T21:35:07.028Z,3.92
2024-03-15T21:37:36.373Z,2.00
2024-03-15T21:40:03.562Z,1.40
2024-03-15T21:42:30.199Z,3.40
2024-03-15T21:44:58.551Z,2.60
2024-03-15T21:47:25.042Z,1.70
2024-03-15T21:49:51.593Z,1.52
2024-03-15T21:52:18.826Z,1.20
2024-03-15T21:54:47.074Z,1.25
2024-03-15T21:57:13.873Z,1.27
2024-03-15T21:59:45.114Z,1.90
2024-03-15T22:02:14.242Z,1.52
2024-03-15T22:04:40.746Z,0.70
2024-03-15T22:07:07.281Z,0.65
2024-03-15T22:09:36.432Z,0.80
2024-03-15T22:12:03.562Z,0.85
2024-03-15T22:14:29.995Z,0.82
2024-03-15T22:16:56.523Z,0.50
2024-03-15T22:19:23.054Z,0.40
2024-03-15T22:21:49.988Z,1.05
2024-03-15T22:24:16.665Z,1.73
2024-03-15T22:26:43.085Z,1.45
2024-03-15T22:29:10.479Z,0.63
2024-03-15T22:31:37.061Z,1.42
2024-03-15T22:34:03.647Z,0.30
2024-03-15T22:36:30.119Z,1.02
2024-03-15T22:38:56.637Z,0.50
2024-03-15T22:41:26.010Z,0.40
2024-03-15T22:43:52.551Z,0.98
2024-03-15T22:46:19.751Z,0.85
2024-03-15T22:48:46.405Z,1.13
2024-03-15T22:51:12.859Z,1.05
2024-03-15T22:53:39.353Z,0.70
2024-03-15T22:56:05.844Z,0.98
2024-03-15T22:58:33.226Z,1.15
2024-03-15T23:01:00.552Z,1.08
2024-03-15T23:03:27.049Z,1.33
2024-03-15T23:05:53.530Z,1.05
2024-03-15T23:08:19.989Z,2.45
2024-03-15T23:10:46.390Z,0.82
2024-03-15T23:13:13.027Z,1.38
2024-03-15T23:15:39.996Z,0.45
2024-03-15T23:18:10.512Z,1.63
2024-03-15T23:20:37.095Z,1.80
2024-03-15T23:23:04.010Z,1.02
2024-03-15T23:25:30.565Z,0.73
2024-03-15T23:27:57.029Z,1.63
2024-03-15T23:30:24.222Z,1.05
2024-03-15T23:32:52.825Z,0.80
2024-03-15T23:35:20.555Z,1.20
2024-03-15T23:37:48.050Z,0.90
2024-03-15T23:40:15.975Z,1.35
2024-03-15T23:42:42.841Z,1.25
2024-03-15T23:45:09.431Z,1.55
2024-03-15T23:47:36.320Z,2.25
2024-03-15T23:50:04.397Z,1.38
2024-03-15T23:52:30.827Z,1.48
2024-03-15T23:54:57.305Z,1.45
2024-03-15T23:57:23.797Z,1.00
2024-03-15T23:59:51.214Z,1.67
